sensor_id;sensor_type;location;lat;lon;timestamp;pressure;altitude;pressure_sealevel;temperature;humidity
73063;BME280;61230;46.328;19.972;2022-08-04T14:08:24;100519.41;;;34.60;23.27
73063;BME280;61230;46.328;19.972;2022-08-04T14:10:55;100519.41;;;34.60;23.27
73063;BME280;61230;46.328;19.972;2022-08-04T14:13:33;100517.06;;;34.16;23.59
73063;BME280;61230;46.328;19.972;2022-08-04T14:16:19;100504.44;;;33.25;24.72
73063;BME280;61230;46.328;19.972;2022-08-04T14:18:56;100517.38;;;33.15;24.86
73063;BME280;61230;46.328;19.972;2022-08-04T14:21:25;100516.59;;;33.04;25.09
73063;BME280;61230;46.328;19.972;2022-08-04T14:23:54;100512.31;;;32.93;24.67
73063;BME280;61230;46.328;19.972;2022-08-04T14:26:40;100526.78;;;32.60;25.01
73063;BME280;61230;46.328;19.972;2022-08-04T14:29:14;100523.19;;;32.69;25.12
73063;BME280;61230;46.328;19.972;2022-08-04T14:32:03;100516.19;;;32.58;26.00
73063;BME280;61230;46.328;19.972;2022-08-04T14:34:43;100519.25;;;32.36;27.23
73063;BME280;61230;46.328;19.972;2022-08-04T14:37:16;100515.06;;;32.93;25.41
73063;BME280;61230;46.328;19.972;2022-08-04T14:39:50;100514.75;;;33.52;24.35
73063;BME280;61230;46.328;19.972;2022-08-04T14:42:40;100514.63;;;33.91;23.71
73063;BME280;61230;46.328;19.972;2022-08-04T14:45:09;100514.53;;;33.77;23.32
73063;BME280;61230;46.328;19.972;2022-08-04T14:50:07;100508.50;;;33.80;23.19
73063;BME280;61230;46.328;19.972;2022-08-04T14:52:36;100506.50;;;34.28;23.13
73063;BME280;61230;46.328;19.972;2022-08-04T14:55:23;100508.19;;;34.43;22.77
73063;BME280;61230;46.328;19.972;2022-08-04T14:57:51;100506.56;;;34.79;23.70
73063;BME280;61230;46.328;19.972;2022-08-04T15:00:39;100501.53;;;35.00;23.46
73063;BME280;61230;46.328;19.972;2022-08-04T15:03:08;100504.78;;;34.51;23.89
73063;BME280;61230;46.328;19.972;2022-08-04T15:05:39;100497.19;;;34.99;23.83
73063;BME280;61230;46.328;19.972;2022-08-04T15:08:27;100493.53;;;35.22;23.05
73063;BME280;61230;46.328;19.972;2022-08-04T15:10:59;100498.09;;;35.54;22.50
73063;BME280;61230;46.328;19.972;2022-08-04T15:13:30;100495.59;;;35.57;22.66
73063;BME280;61230;46.328;19.972;2022-08-04T15:15:59;100497.19;;;35.45;22.53
73063;BME280;61230;46.328;19.972;2022-08-04T15:18:37;100488.06;;;35.36;22.39
73063;BME280;61230;46.328;19.972;2022-08-04T15:21:06;100489.50;;;35.60;22.50
73063;BME280;61230;46.328;19.972;2022-08-04T15:23:34;100495.13;;;35.23;21.71
73063;BME280;61230;46.328;19.972;2022-08-04T15:26:15;100493.34;;;34.68;22.49
73063;BME280;61230;46.328;19.972;2022-08-04T15:28:50;100487.44;;;34.42;22.47
73063;BME280;61230;46.328;19.972;2022-08-04T15:31:19;100498.59;;;34.45;22.65
73063;BME280;61230;46.328;19.972;2022-08-04T15:34:08;100491.84;;;34.38;22.98
73063;BME280;61230;46.328;19.972;2022-08-04T15:47:19;100477.16;;;33.73;23.92
73063;BME280;61230;46.328;19.972;2022-08-04T15:53:01;100481.41;;;33.08;24.33
73063;BME280;61230;46.328;19.972;2022-08-04T15:55:41;100475.78;;;32.94;23.90
73063;BME280;61230;46.328;19.972;2022-08-04T15:58:12;100477.06;;;32.73;24.38
73063;BME280;61230;46.328;19.972;2022-08-04T16:16:46;100465.13;;;32.25;25.12
73063;BME280;61230;46.328;19.972;2022-08-04T16:19:56;100467.59;;;32.21;25.27
73063;BME280;61230;46.328;19.972;2022-08-04T16:22:33;100463.31;;;32.15;25.53
73063;BME280;61230;46.328;19.972;2022-08-04T16:25:01;100467.97;;;32.10;25.85
73063;BME280;61230;46.328;19.972;2022-08-04T16:27:37;100463.34;;;32.05;26.04
73063;BME280;61230;46.328;19.972;2022-08-04T16:30:08;100463.59;;;31.99;25.77
73063;BME280;61230;46.328;19.972;2022-08-04T16:32:45;100458.50;;;31.92;25.45
73063;BME280;61230;46.328;19.972;2022-08-04T16:35:19;100453.09;;;31.87;25.65
73063;BME280;61230;46.328;19.972;2022-08-04T16:37:47;100455.28;;;31.80;26.03
73063;BME280;61230;46.328;19.972;2022-08-04T16:40:32;100456.41;;;31.74;26.24
73063;BME280;61230;46.328;19.972;2022-08-04T16:48:23;100448.88;;;31.56;26.18
73063;BME280;61230;46.328;19.972;2022-08-04T16:53:34;100457.56;;;31.48;26.25
73063;BME280;61230;46.328;19.972;2022-08-04T16:56:28;100452.12;;;31.43;26.21
73063;BME280;61230;46.328;19.972;2022-08-04T16:58:56;100452.97;;;31.38;26.25
73063;BME280;61230;46.328;19.972;2022-08-04T17:01:24;100454.06;;;31.32;26.52
73063;BME280;61230;46.328;19.972;2022-08-04T17:04:02;100452.47;;;31.26;26.84
73063;BME280;61230;46.328;19.972;2022-08-04T17:06:41;100451.66;;;31.20;27.07
73063;BME280;61230;46.328;19.972;2022-08-04T17:09:15;100455.47;;;31.14;27.43
73063;BME280;61230;46.328;19.972;2022-08-04T17:11:44;100454.41;;;31.05;27.52
73063;BME280;61230;46.328;19.972;2022-08-04T17:14:12;100454.69;;;30.99;27.64
73063;BME280;61230;46.328;19.972;2022-08-04T17:16:41;100453.28;;;30.91;27.84
73063;BME280;61230;46.328;19.972;2022-08-04T17:19:10;100456.56;;;30.83;28.11
73063;BME280;61230;46.328;19.972;2022-08-04T17:21:55;100460.66;;;30.75;28.39
73063;BME280;61230;46.328;19.972;2022-08-04T17:24:34;100454.66;;;30.68;28.66
73063;BME280;61230;46.328;19.972;2022-08-04T17:27:02;100457.69;;;30.62;28.85
73063;BME280;61230;46.328;19.972;2022-08-04T17:29:50;100458.19;;;30.54;29.03
73063;BME280;61230;46.328;19.972;2022-08-04T17:32:19;100462.56;;;30.45;29.24
73063;BME280;61230;46.328;19.972;2022-08-04T17:34:59;100463.06;;;30.37;29.41
73063;BME280;61230;46.328;19.972;2022-08-04T17:37:30;100467.09;;;30.29;29.75
73063;BME280;61230;46.328;19.972;2022-08-04T17:40:14;100466.56;;;30.22;29.78
73063;BME280;61230;46.328;19.972;2022-08-04T17:43:00;100467.91;;;30.14;30.36
73063;BME280;61230;46.328;19.972;2022-08-04T17:45:28;100476.03;;;30.04;30.93
73063;BME280;61230;46.328;19.972;2022-08-04T17:48:18;100469.75;;;29.94;30.91
73063;BME280;61230;46.328;19.972;2022-08-04T17:50:51;100469.97;;;29.82;31.21
73063;BME280;61230;46.328;19.972;2022-08-04T17:53:30;100463.66;;;29.72;31.42
73063;BME280;61230;46.328;19.972;2022-08-04T17:56:33;100475.00;;;29.58;31.71
73063;BME280;61230;46.328;19.972;2022-08-04T18:02:21;100472.97;;;29.34;32.17
73063;BME280;61230;46.328;19.972;2022-08-04T18:05:01;100467.69;;;29.17;33.03
73063;BME280;61230;46.328;19.972;2022-08-04T18:07:38;100468.44;;;29.07;32.93
73063;BME280;61230;46.328;19.972;2022-08-04T18:10:40;100474.87;;;28.96;33.34
73063;BME280;61230;46.328;19.972;2022-08-04T18:13:26;100477.44;;;28.81;34.12
73063;BME280;61230;46.328;19.972;2022-08-04T18:16:04;100475.72;;;28.70;34.23
73063;BME280;61230;46.328;19.972;2022-08-04T18:19:11;100481.00;;;28.55;34.76
73063;BME280;61230;46.328;19.972;2022-08-04T18:21:39;100482.78;;;28.44;35.56
73063;BME280;61230;46.328;19.972;2022-08-04T18:24:27;100480.53;;;28.36;35.50
73063;BME280;61230;46.328;19.972;2022-08-04T18:27:18;100471.56;;;28.31;35.42
73063;BME280;61230;46.328;19.972;2022-08-04T18:29:46;100483.41;;;28.25;35.17
73063;BME280;61230;46.328;19.972;2022-08-04T18:32:34;100487.19;;;28.24;35.00
73063;BME280;61230;46.328;19.972;2022-08-04T18:35:02;100488.94;;;28.13;35.28
73063;BME280;61230;46.328;19.972;2022-08-04T18:37:51;100490.22;;;28.06;35.50
73063;BME280;61230;46.328;19.972;2022-08-04T18:40:34;100495.28;;;28.02;35.54
73063;BME280;61230;46.328;19.972;2022-08-04T18:43:21;100495.75;;;27.94;35.73
73063;BME280;61230;46.328;19.972;2022-08-04T18:45:59;100502.94;;;27.83;36.24
73063;BME280;61230;46.328;19.972;2022-08-04T18:48:27;100498.19;;;27.74;36.26
73063;BME280;61230;46.328;19.972;2022-08-04T18:51:04;100504.38;;;27.69;36.03
73063;BME280;61230;46.328;19.972;2022-08-04T18:53:50;100497.75;;;27.60;35.91
73063;BME280;61230;46.328;19.972;2022-08-04T18:56:29;100498.06;;;27.64;35.63
73063;BME280;61230;46.328;19.972;2022-08-04T18:59:00;100498.50;;;27.56;35.89
73063;BME280;61230;46.328;19.972;2022-08-04T19:01:31;100504.16;;;27.54;35.92
73063;BME280;61230;46.328;19.972;2022-08-04T19:04:19;100507.63;;;27.50;35.88
73063;BME280;61230;46.328;19.972;2022-08-04T19:07:00;100501.19;;;27.39;36.08
73063;BME280;61230;46.328;19.972;2022-08-04T19:09:48;100499.31;;;27.39;36.05
73063;BME280;61230;46.328;19.972;2022-08-04T19:12:21;100499.91;;;27.25;36.47
73063;BME280;61230;46.328;19.972;2022-08-04T19:14:57;100503.69;;;27.24;36.50
73063;BME280;61230;46.328;19.972;2022-08-04T19:17:37;100509.34;;;27.22;36.55
73063;BME280;61230;46.328;19.972;2022-08-04T19:20:25;100513.84;;;27.17;36.75
73063;BME280;61230;46.328;19.972;2022-08-04T19:22:56;100515.50;;;27.18;36.82
73063;BME280;61230;46.328;19.972;2022-08-04T19:25:45;100517.84;;;27.14;36.87
73063;BME280;61230;46.328;19.972;2022-08-04T19:28:31;100512.53;;;27.03;37.58
73063;BME280;61230;46.328;19.972;2022-08-04T19:31:03;100523.12;;;26.88;38.04
73063;BME280;61230;46.328;19.972;2022-08-04T19:33:32;100522.19;;;26.82;38.15
73063;BME280;61230;46.328;19.972;2022-08-04T19:36:20;100524.94;;;26.70;38.70
73063;BME280;61230;46.328;19.972;2022-08-04T19:38:59;100527.22;;;26.62;38.99
73063;BME280;61230;46.328;19.972;2022-08-04T19:41:28;100532.78;;;26.55;39.84
73063;BME280;61230;46.328;19.972;2022-08-04T19:43:58;100537.72;;;26.47;39.97
73063;BME280;61230;46.328;19.972;2022-08-04T19:46:25;100535.00;;;26.30;40.74
73063;BME280;61230;46.328;19.972;2022-08-04T19:48:55;100541.25;;;26.19;41.11
73063;BME280;61230;46.328;19.972;2022-08-04T19:51:28;100535.37;;;26.22;41.03
73063;BME280;61230;46.328;19.972;2022-08-04T19:53:59;100543.13;;;26.18;42.31
73063;BME280;61230;46.328;19.972;2022-08-04T19:56:34;100540.53;;;26.12;42.33
73063;BME280;61230;46.328;19.972;2022-08-04T19:59:08;100547.69;;;26.18;41.95
73063;BME280;61230;46.328;19.972;2022-08-04T20:01:37;100541.78;;;26.33;40.71
73063;BME280;61230;46.328;19.972;2022-08-04T20:04:13;100537.69;;;26.30;40.77
73063;BME280;61230;46.328;19.972;2022-08-04T20:06:41;100549.78;;;26.27;41.12
73063;BME280;61230;46.328;19.972;2022-08-04T20:09:09;100538.66;;;26.24;41.21
73063;BME280;61230;46.328;19.972;2022-08-04T20:11:54;100540.88;;;26.27;40.84
73063;BME280;61230;46.328;19.972;2022-08-04T20:14:24;100536.09;;;26.17;40.75
73063;BME280;61230;46.328;19.972;2022-08-04T20:17:03;100543.56;;;26.27;40.36
73063;BME280;61230;46.328;19.972;2022-08-04T20:19:37;100546.50;;;26.25;40.26
73063;BME280;61230;46.328;19.972;2022-08-04T20:22:06;100543.81;;;26.14;40.55
73063;BME280;61230;46.328;19.972;2022-08-04T20:24:54;100546.75;;;26.12;40.30
73063;BME280;61230;46.328;19.972;2022-08-04T20:27:42;100541.00;;;26.09;40.35
73063;BME280;61230;46.328;19.972;2022-08-04T20:30:28;100545.81;;;26.07;40.33
73063;BME280;61230;46.328;19.972;2022-08-04T20:32:56;100542.56;;;26.05;40.34
73063;BME280;61230;46.328;19.972;2022-08-04T20:35:24;100542.22;;;26.01;40.36
73063;BME280;61230;46.328;19.972;2022-08-04T20:37:54;100544.91;;;26.01;40.54
73063;BME280;61230;46.328;19.972;2022-08-04T20:40:28;100546.19;;;25.99;40.66
73063;BME280;61230;46.328;19.972;2022-08-04T20:42:57;100545.37;;;25.98;40.60
73063;BME280;61230;46.328;19.972;2022-08-04T20:45:25;100555.34;;;25.98;40.58
73063;BME280;61230;46.328;19.972;2022-08-04T20:48:13;100550.91;;;25.92;40.89
73063;BME280;61230;46.328;19.972;2022-08-04T20:50:45;100551.16;;;25.90;40.83
73063;BME280;61230;46.328;19.972;2022-08-04T20:53:13;100555.72;;;25.90;41.00
73063;BME280;61230;46.328;19.972;2022-08-04T20:55:44;100551.50;;;25.82;41.14
73063;BME280;61230;46.328;19.972;2022-08-04T20:58:23;100551.88;;;25.74;41.44
73063;BME280;61230;46.328;19.972;2022-08-04T21:00:54;100561.50;;;25.70;41.39
73063;BME280;61230;46.328;19.972;2022-08-04T21:03:23;100563.59;;;25.68;41.58
73063;BME280;61230;46.328;19.972;2022-08-04T21:06:12;100555.63;;;25.61;41.59
73063;BME280;61230;46.328;19.972;2022-08-04T21:08:42;100558.22;;;25.56;41.73
73063;BME280;61230;46.328;19.972;2022-08-04T21:11:23;100556.06;;;25.47;42.21
73063;BME280;61230;46.328;19.972;2022-08-04T21:14:00;100552.91;;;25.38;42.31
73063;BME280;61230;46.328;19.972;2022-08-04T21:16:28;100553.94;;;25.37;42.30
73063;BME280;61230;46.328;19.972;2022-08-04T21:19:16;100557.25;;;25.28;42.68
73063;BME280;61230;46.328;19.972;2022-08-04T21:21:48;100558.75;;;25.24;42.72
73063;BME280;61230;46.328;19.972;2022-08-04T21:24:20;100564.03;;;25.19;42.85
73063;BME280;61230;46.328;19.972;2022-08-04T21:26:53;100564.12;;;25.12;42.94
73063;BME280;61230;46.328;19.972;2022-08-04T21:29:24;100556.88;;;25.12;43.02
73063;BME280;61230;46.328;19.972;2022-08-04T21:32:03;100564.00;;;25.07;43.31
73063;BME280;61230;46.328;19.972;2022-08-04T21:34:34;100568.34;;;25.08;42.90
73063;BME280;61230;46.328;19.972;2022-08-04T21:37:09;100565.75;;;25.01;42.98
73063;BME280;61230;46.328;19.972;2022-08-04T21:39:39;100570.06;;;24.91;43.35
73063;BME280;61230;46.328;19.972;2022-08-04T21:42:17;100567.25;;;24.86;43.26
73063;BME280;61230;46.328;19.972;2022-08-04T21:44:57;100569.31;;;24.84;43.17
73063;BME280;61230;46.328;19.972;2022-08-04T21:47:24;100572.47;;;24.81;43.10
73063;BME280;61230;46.328;19.972;2022-08-04T21:50:12;100574.50;;;24.67;43.42
73063;BME280;61230;46.328;19.972;2022-08-04T21:52:47;100568.41;;;24.60;43.41
73063;BME280;61230;46.328;19.972;2022-08-04T21:55:16;100572.84;;;24.54;43.30
73063;BME280;61230;46.328;19.972;2022-08-04T21:57:45;100575.47;;;24.43;43.53
73063;BME280;61230;46.328;19.972;2022-08-04T22:00:16;100572.56;;;24.44;43.38
73063;BME280;61230;46.328;19.972;2022-08-04T22:02:46;100566.53;;;24.31;43.53
73063;BME280;61230;46.328;19.972;2022-08-04T22:05:20;100572.59;;;24.26;43.58
73063;BME280;61230;46.328;19.972;2022-08-04T22:07:50;100571.09;;;24.30;43.39
73063;BME280;61230;46.328;19.972;2022-08-04T22:10:18;100569.47;;;24.29;43.20
73063;BME280;61230;46.328;19.972;2022-08-04T22:12:59;100567.44;;;24.25;43.10
73063;BME280;61230;46.328;19.972;2022-08-04T22:15:34;100570.34;;;24.23;43.46
73063;BME280;61230;46.328;19.972;2022-08-04T22:18:22;100569.97;;;24.20;43.52
73063;BME280;61230;46.328;19.972;2022-08-04T22:20:54;100576.69;;;24.11;43.97
73063;BME280;61230;46.328;19.972;2022-08-04T22:23:21;100569.88;;;24.08;43.91
73063;BME280;61230;46.328;19.972;2022-08-04T22:25:51;100575.50;;;24.07;43.95
73063;BME280;61230;46.328;19.972;2022-08-04T22:28:23;100575.56;;;24.00;44.01
73063;BME280;61230;46.328;19.972;2022-08-04T22:30:55;100572.28;;;23.98;43.98
73063;BME280;61230;46.328;19.972;2022-08-04T22:33:23;100581.53;;;23.84;45.69
73063;BME280;61230;46.328;19.972;2022-08-04T22:36:13;100579.22;;;23.69;46.30
73063;BME280;61230;46.328;19.972;2022-08-04T22:38:43;100574.81;;;23.50;47.37
73063;BME280;61230;46.328;19.972;2022-08-04T22:41:19;100572.53;;;23.29;48.16
73063;BME280;61230;46.328;19.972;2022-08-04T22:43:47;100574.88;;;23.19;49.45
73063;BME280;61230;46.328;19.972;2022-08-04T22:46:27;100577.53;;;22.94;49.87
73063;BME280;61230;46.328;19.972;2022-08-04T22:48:56;100580.22;;;22.94;50.39
73063;BME280;61230;46.328;19.972;2022-08-04T22:51:24;100575.13;;;22.86;50.01
73063;BME280;61230;46.328;19.972;2022-08-04T22:53:53;100583.44;;;22.78;52.48
73063;BME280;61230;46.328;19.972;2022-08-04T22:56:21;100581.44;;;22.67;52.28
73063;BME280;61230;46.328;19.972;2022-08-04T22:59:06;100585.53;;;22.63;52.65
73063;BME280;61230;46.328;19.972;2022-08-04T23:01:38;100582.25;;;22.61;51.86
73063;BME280;61230;46.328;19.972;2022-08-04T23:04:29;100574.84;;;22.56;51.48
73063;BME280;61230;46.328;19.972;2022-08-04T23:06:57;100580.72;;;22.33;52.37
73063;BME280;61230;46.328;19.972;2022-08-04T23:09:25;100580.56;;;22.28;51.61
73063;BME280;61230;46.328;19.972;2022-08-04T23:12:13;100578.94;;;22.21;52.35
73063;BME280;61230;46.328;19.972;2022-08-04T23:14:57;100573.66;;;22.08;54.24
73063;BME280;61230;46.328;19.972;2022-08-04T23:17:26;100577.41;;;21.87;54.44
73063;BME280;61230;46.328;19.972;2022-08-04T23:19:55;100578.81;;;21.83;54.00
73063;BME280;61230;46.328;19.972;2022-08-04T23:22:30;100577.41;;;21.87;53.73
73063;BME280;61230;46.328;19.972;2022-08-04T23:25:10;100575.75;;;21.93;53.96
73063;BME280;61230;46.328;19.972;2022-08-04T23:27:46;100574.72;;;21.74;54.94
73063;BME280;61230;46.328;19.972;2022-08-04T23:30:22;100575.94;;;21.71;56.19
73063;BME280;61230;46.328;19.972;2022-08-04T23:32:52;100573.31;;;21.65;57.48
73063;BME280;61230;46.328;19.972;2022-08-04T23:35:21;100576.22;;;21.57;56.87
73063;BME280;61230;46.328;19.972;2022-08-04T23:37:49;100562.59;;;21.52;57.36
73063;BME280;61230;46.328;19.972;2022-08-04T23:40:26;100577.03;;;21.44;56.07
73063;BME280;61230;46.328;19.972;2022-08-04T23:43:02;100564.88;;;21.42;55.66
73063;BME280;61230;46.328;19.972;2022-08-04T23:45:45;100574.75;;;21.54;56.81
73063;BME280;61230;46.328;19.972;2022-08-04T23:48:35;100570.25;;;21.48;56.70
73063;BME280;61230;46.328;19.972;2022-08-04T23:51:08;100571.66;;;21.38;58.62
73063;BME280;61230;46.328;19.972;2022-08-04T23:53:44;100570.47;;;21.34;58.66
73063;BME280;61230;46.328;19.972;2022-08-04T23:56:31;100568.00;;;21.26;58.80
73063;BME280;61230;46.328;19.972;2022-08-04T23:59:01;100565.72;;;21.23;58.90
